createdAt,value
2022-12-08T00:00:17.103Z,100521.72
2022-12-08T00:03:11.487Z,100525.56
2022-12-08T00:06:00.334Z,100522.06
2022-12-08T00:08:44.793Z,100507.53
2022-12-08T00:11:19.055Z,100512.00
2022-12-08T00:13:51.470Z,100514.22
2022-12-08T00:16:26.566Z,100510.94
2022-12-08T00:18:59.023Z,100513.22
2022-12-08T00:21:32.200Z,100516.03
2022-12-08T00:24:04.687Z,100510.63
2022-12-08T00:26:37.012Z,100508.28
2022-12-08T00:29:14.491Z,100503.56
2022-12-08T00:31:52.293Z,100501.00
2022-12-08T00:34:24.702Z,100501.97
2022-12-08T00:36:56.702Z,100490.00
2022-12-08T00:39:28.982Z,100488.91
2022-12-08T00:42:16.282Z,100491.69
2022-12-08T00:44:49.041Z,100493.84
2022-12-08T00:47:25.113Z,100487.28
2022-12-08T00:49:57.314Z,100485.22
2022-12-08T00:52:29.109Z,100489.47
2022-12-08T00:55:00.790Z,100488.72
2022-12-08T00:57:35.837Z,100493.44
2022-12-08T01:00:15.160Z,100484.28
2022-12-08T01:02:50.767Z,100482.00
2022-12-08T01:05:23.997Z,100479.03
2022-12-08T01:07:55.780Z,100483.22
2022-12-08T01:10:27.977Z,100491.41
2022-12-08T01:12:59.640Z,100483.91
2022-12-08T01:15:31.726Z,100478.44
2022-12-08T01:18:08.667Z,100483.06
2022-12-08T01:20:40.757Z,100484.50
2022-12-08T01:23:12.199Z,100481.09
2022-12-08T01:25:44.755Z,100474.66
2022-12-08T01:28:16.504Z,100482.06
2022-12-08T01:30:51.547Z,100474.75
2022-12-08T01:33:26.402Z,100478.22
2022-12-08T01:35:58.696Z,100471.59
2022-12-08T01:38:30.161Z,100468.97
2022-12-08T01:41:02.858Z,100464.16
2022-12-08T01:44:00.689Z,100460.81
2022-12-08T01:46:35.572Z,100454.84
2022-12-08T01:49:15.813Z,100445.56
2022-12-08T01:51:55.707Z,100444.75
2022-12-08T01:54:31.596Z,100443.38
2022-12-08T01:57:07.069Z,100440.25
2022-12-08T01:59:43.105Z,100436.75
2022-12-08T02:02:15.814Z,100432.94
2022-12-08T02:04:50.355Z,100438.50
2022-12-08T02:07:25.679Z,100433.47
2022-12-08T02:09:58.649Z,100420.66
2022-12-08T02:12:30.787Z,100420.81
2022-12-08T02:15:05.334Z,100419.19
2022-12-08T02:17:56.349Z,100415.63
2022-12-08T02:20:46.385Z,100413.94
2022-12-08T02:23:30.309Z,100421.66
2022-12-08T02:26:48.771Z,100411.31
2022-12-08T02:30:12.138Z,100406.31
2022-12-08T02:33:14.333Z,100403.38
2022-12-08T02:35:59.402Z,100399.50
2022-12-08T02:38:48.082Z,100401.38
2022-12-08T02:41:33.877Z,100399.47
2022-12-08T02:44:14.710Z,100387.16
2022-12-08T02:47:02.296Z,100388.72
2022-12-08T02:49:37.039Z,100385.16
2022-12-08T02:52:45.730Z,100380.22
2022-12-08T02:55:41.176Z,100371.00
2022-12-08T02:58:46.440Z,100363.81
2022-12-08T03:01:36.187Z,100361.78
2022-12-08T03:04:17.293Z,100359.06
2022-12-08T03:06:54.820Z,100353.16
2022-12-08T03:09:38.863Z,100352.22
2022-12-08T03:12:19.864Z,100358.38
2022-12-08T03:14:57.783Z,100349.84
2022-12-08T03:17:34.416Z,100347.97
2022-12-08T03:20:12.480Z,100344.06
2022-12-08T03:22:47.464Z,100343.13
2022-12-08T03:25:26.297Z,100344.69
2022-12-08T03:27:58.442Z,100343.00
2022-12-08T03:30:34.311Z,100347.63
2022-12-08T03:33:12.405Z,100343.00
2022-12-08T03:35:46.115Z,100338.41
2022-12-08T03:38:23.700Z,100332.78
2022-12-08T03:41:10.658Z,100326.69
2022-12-08T03:43:42.317Z,100328.69
2022-12-08T03:46:14.143Z,100328.69
2022-12-08T03:48:46.949Z,100318.03
2022-12-08T03:51:19.162Z,100317.16
2022-12-08T03:53:51.140Z,100310.75
2022-12-08T03:56:28.269Z,100310.19
2022-12-08T03:59:00.066Z,100315.72
2022-12-08T04:01:33.645Z,100313.72
2022-12-08T04:04:06.915Z,100312.22
2022-12-08T04:06:38.693Z,100304.13
2022-12-08T04:09:10.299Z,100294.03
2022-12-08T04:11:44.896Z,100292.59
2022-12-08T04:14:17.115Z,100290.16
2022-12-08T04:16:49.019Z,100288.69
2022-12-08T04:19:20.590Z,100288.03
2022-12-08T04:21:55.329Z,100289.00
2022-12-08T04:24:26.682Z,100289.53
2022-12-08T04:27:01.212Z,100287.00
2022-12-08T04:29:32.750Z,100288.81
2022-12-08T04:32:04.838Z,100282.19
2022-12-08T04:34:37.344Z,100285.47
2022-12-08T04:37:12.047Z,100275.38
2022-12-08T04:39:43.515Z,100285.53
2022-12-08T04:42:18.521Z,100284.06
2022-12-08T04:44:50.047Z,100286.09
2022-12-08T04:47:22.623Z,100279.69
2022-12-08T04:49:54.274Z,100280.59
2022-12-08T04:52:26.101Z,100280.63
2022-12-08T04:54:57.388Z,100277.13
2022-12-08T04:57:32.286Z,100285.16
2022-12-08T05:00:04.131Z,100280.16
2022-12-08T05:02:38.311Z,100272.63
2022-12-08T05:05:11.683Z,100269.72
2022-12-08T05:07:46.528Z,100274.25
2022-12-08T05:10:18.179Z,100272.53
2022-12-08T05:12:52.732Z,100259.84
2022-12-08T05:15:24.480Z,100263.47
2022-12-08T05:17:56.411Z,100261.19
2022-12-08T05:20:27.762Z,100266.53
2022-12-08T05:22:59.246Z,100260.06
2022-12-08T05:25:33.159Z,100267.22
2022-12-08T05:28:39.621Z,100258.31
2022-12-08T05:31:01.586Z,100254.50
2022-12-08T05:33:34.092Z,100263.16
2022-12-08T05:36:06.085Z,100261.38
2022-12-08T05:38:38.039Z,100258.13
2022-12-08T05:41:12.385Z,100247.91
2022-12-08T05:43:47.658Z,100249.88
2022-12-08T05:46:20.146Z,100251.34
2022-12-08T05:48:51.917Z,100259.31
2022-12-08T05:51:30.907Z,100247.53
2022-12-08T05:54:03.072Z,100253.00
2022-12-08T05:56:36.914Z,100251.47
2022-12-08T05:59:12.215Z,100246.72
2022-12-08T06:01:43.882Z,100247.97
2022-12-08T06:04:15.754Z,100242.44
2022-12-08T06:06:47.225Z,100241.13
2022-12-08T06:09:20.691Z,100240.44
2022-12-08T06:11:54.869Z,100243.72
2022-12-08T06:14:29.621Z,100242.69
2022-12-08T06:17:01.372Z,100239.75
2022-12-08T06:19:33.590Z,100235.75
2022-12-08T06:22:05.381Z,100240.72
2022-12-08T06:24:38.235Z,100236.03
2022-12-08T06:27:10.016Z,100241.88
2022-12-08T06:29:44.889Z,100240.78
2022-12-08T06:32:17.138Z,100243.38
2022-12-08T06:34:49.689Z,100244.41
2022-12-08T06:37:22.538Z,100249.72
2022-12-08T06:39:55.173Z,100245.41
2022-12-08T06:42:54.918Z,100237.81
2022-12-08T06:45:30.325Z,100241.56
2022-12-08T06:48:04.231Z,100250.31
2022-12-08T06:50:36.811Z,100247.94
2022-12-08T06:53:08.970Z,100245.34
2022-12-08T06:55:58.319Z,100252.56
2022-12-08T06:58:31.338Z,100248.84
2022-12-08T07:01:11.483Z,100244.19
2022-12-08T07:03:44.816Z,100248.88
2022-12-08T07:06:19.964Z,100256.59
2022-12-08T07:08:51.493Z,100258.75
2022-12-08T07:11:23.424Z,100259.41
2022-12-08T07:13:55.402Z,100264.72
2022-12-08T07:16:29.878Z,100262.25
2022-12-08T07:19:10.129Z,100268.31
2022-12-08T07:21:42.514Z,100259.56
2022-12-08T07:24:14.623Z,100261.00
2022-12-08T07:26:46.631Z,100263.09
2022-12-08T07:29:23.047Z,100262.38
2022-12-08T07:32:00.273Z,100263.09
2022-12-08T07:34:31.864Z,100259.94
2022-12-08T07:37:03.778Z,100265.00
2022-12-08T07:39:38.408Z,100259.81
2022-12-08T07:42:10.038Z,100262.19
2022-12-08T07:44:41.757Z,100259.13
2022-12-08T07:47:16.487Z,100263.66
2022-12-08T07:49:48.405Z,100257.88
2022-12-08T07:52:20.890Z,100250.88
2022-12-08T07:54:52.486Z,100252.03
2022-12-08T07:57:24.547Z,100260.72
2022-12-08T08:00:00.405Z,100257.66
2022-12-08T08:02:35.159Z,100260.56
2022-12-08T08:05:10.893Z,100265.75
2022-12-08T08:07:45.735Z,100265.75
2022-12-08T08:10:19.921Z,100269.66
2022-12-08T08:12:54.502Z,100277.09
2022-12-08T08:15:28.741Z,100275.03
2022-12-08T08:18:03.901Z,100278.38
2022-12-08T08:20:37.317Z,100278.78
2022-12-08T08:23:08.871Z,100270.94
2022-12-08T08:25:40.859Z,100276.97
2022-12-08T08:28:12.895Z,100273.03
2022-12-08T08:30:44.541Z,100270.41
2022-12-08T08:33:18.836Z,100275.00
2022-12-08T08:35:50.152Z,100270.53
2022-12-08T08:38:21.738Z,100263.91
2022-12-08T08:40:53.421Z,100261.69
2022-12-08T08:43:38.103Z,100267.28
2022-12-08T08:46:12.010Z,100271.91
2022-12-08T08:48:48.778Z,100265.22
2022-12-08T08:51:21.463Z,100266.31
2022-12-08T08:53:53.171Z,100264.38
2022-12-08T08:56:24.511Z,100269.34
2022-12-08T08:59:26.344Z,100265.16
2022-12-08T09:01:59.290Z,100263.91
2022-12-08T09:04:34.632Z,100259.78
2022-12-08T09:07:07.103Z,100259.25
2022-12-08T09:09:39.977Z,100258.97
2022-12-08T09:12:16.376Z,100260.75
2022-12-08T09:14:49.497Z,100249.16
2022-12-08T09:17:21.864Z,100246.84
2022-12-08T09:19:57.221Z,100257.69
2022-12-08T09:22:29.576Z,100248.91
2022-12-08T09:25:02.376Z,100244.53
2022-12-08T09:27:35.255Z,100249.63
2022-12-08T09:30:09.179Z,100241.72
2022-12-08T09:32:41.456Z,100237.19
2022-12-08T09:35:16.816Z,100232.97
2022-12-08T09:37:49.096Z,100225.28
2022-12-08T09:40:25.575Z,100228.16
2022-12-08T09:43:05.614Z,100228.25
2022-12-08T09:45:39.856Z,100221.94
2022-12-08T09:48:18.738Z,100232.31
2022-12-08T09:50:58.229Z,100224.75
2022-12-08T09:53:39.255Z,100221.56
2022-12-08T09:56:18.057Z,100227.78
2022-12-08T09:58:55.743Z,100222.38
2022-12-08T10:01:32.931Z,100221.03
2022-12-08T10:04:05.699Z,100223.09
2022-12-08T10:06:45.896Z,100220.03
2022-12-08T10:09:32.084Z,100215.38
2022-12-08T10:12:11.735Z,100217.19
2022-12-08T10:14:47.661Z,100214.31
2022-12-08T10:17:25.617Z,100217.31
2022-12-08T10:20:05.175Z,100217.91
2022-12-08T10:22:44.768Z,100206.97
2022-12-08T10:25:23.017Z,100216.53
2022-12-08T10:27:58.338Z,100211.91
2022-12-08T10:30:31.055Z,100201.75
2022-12-08T10:33:03.697Z,100202.31
2022-12-08T10:35:48.536Z,100194.88
2022-12-08T10:38:26.896Z,100195.41
2022-12-08T10:41:06.976Z,100187.41
2022-12-08T10:43:43.061Z,100193.59
2022-12-08T10:46:18.159Z,100189.78
2022-12-08T10:48:56.334Z,100188.69
2022-12-08T10:51:34.415Z,100193.25
2022-12-08T10:54:28.099Z,100191.31
2022-12-08T10:57:01.215Z,100188.25
2022-12-08T10:59:37.337Z,100187.13
2022-12-08T11:02:21.832Z,100182.84
2022-12-08T11:05:02.655Z,100180.53
2022-12-08T11:07:35.697Z,100180.44
2022-12-08T11:10:22.417Z,100185.13
2022-12-08T11:12:55.777Z,100181.00
2022-12-08T11:15:28.655Z,100177.13
2022-12-08T11:18:10.335Z,100181.38
2022-12-08T11:20:45.612Z,100185.50
2022-12-08T11:23:25.335Z,100185.31
2022-12-08T11:26:07.897Z,100170.41
2022-12-08T11:28:40.143Z,100174.59
2022-12-08T11:31:31.395Z,100174.03
2022-12-08T11:34:04.376Z,100165.19
2022-12-08T11:36:39.055Z,100166.13
2022-12-08T11:39:16.191Z,100166.78
2022-12-08T11:41:52.337Z,100171.09
2022-12-08T11:44:32.574Z,100165.88
2022-12-08T11:47:12.136Z,100173.59
2022-12-08T11:52:46.961Z,100170.69
2022-12-08T11:55:37.085Z,100183.50
2022-12-08T11:58:21.971Z,100173.88
2022-12-08T12:00:53.566Z,100175.63
2022-12-08T12:03:32.536Z,100176.84
2022-12-08T12:06:53.341Z,100183.44
2022-12-08T12:09:36.443Z,100174.97
2022-12-08T12:12:22.169Z,100176.50
2022-12-08T12:15:34.768Z,100165.22
2022-12-08T12:18:16.566Z,100174.81
2022-12-08T12:20:56.682Z,100172.84
2022-12-08T12:23:39.594Z,100174.47
2022-12-08T12:26:21.373Z,100176.66
2022-12-08T12:28:56.991Z,100172.81
2022-12-08T12:31:34.191Z,100170.00
2022-12-08T12:34:14.932Z,100169.25
2022-12-08T12:36:52.225Z,100175.19
2022-12-08T12:39:26.637Z,100176.31
2022-12-08T12:42:02.294Z,100172.16
2022-12-08T12:44:44.177Z,100165.53
2022-12-08T12:47:56.390Z,100168.56
2022-12-08T12:50:51.291Z,100172.47
2022-12-08T12:53:52.760Z,100166.97
2022-12-08T12:56:57.322Z,100164.00
2022-12-08T12:59:55.126Z,100162.09
2022-12-08T13:02:33.461Z,100159.06
2022-12-08T13:05:10.962Z,100164.28
2022-12-08T13:07:49.706Z,100164.84
2022-12-08T13:10:26.141Z,100171.31
2022-12-08T13:13:10.621Z,100168.47
2022-12-08T13:15:55.211Z,100160.16
2022-12-08T13:18:37.396Z,100162.09
2022-12-08T13:21:21.517Z,100168.31
2022-12-08T13:24:18.203Z,100161.00
2022-12-08T13:26:53.878Z,100159.66
2022-12-08T13:29:29.643Z,100159.25
2022-12-08T13:32:03.267Z,100167.13
2022-12-08T13:34:48.988Z,100163.75
2022-12-08T13:37:31.958Z,100163.41
2022-12-08T13:40:08.963Z,100164.03
2022-12-08T13:42:49.469Z,100170.09
2022-12-08T13:45:59.474Z,100176.31
2022-12-08T13:49:10.053Z,100175.47
2022-12-08T13:57:29.647Z,100168.63
2022-12-08T14:00:04.784Z,100171.19
2022-12-08T14:02:46.855Z,100173.44
2022-12-08T14:05:30.090Z,100175.06
2022-12-08T14:08:57.133Z,100178.81
2022-12-08T14:11:34.168Z,100180.28
2022-12-08T14:14:09.158Z,100176.66
2022-12-08T14:16:45.038Z,100177.72
2022-12-08T14:19:23.373Z,100176.22
2022-12-08T14:21:59.849Z,100179.72
2022-12-08T14:24:35.481Z,100183.06
2022-12-08T14:27:11.066Z,100186.00
2022-12-08T14:29:47.566Z,100186.03
2022-12-08T14:32:26.860Z,100186.69
2022-12-08T14:35:03.030Z,100193.28
2022-12-08T14:37:38.461Z,100182.44
2022-12-08T14:40:24.453Z,100191.16
2022-12-08T14:43:08.074Z,100186.31
2022-12-08T14:45:52.365Z,100200.00
2022-12-08T14:48:30.055Z,100187.28
2022-12-08T14:51:09.268Z,100197.38
2022-12-08T14:53:47.788Z,100200.16
2022-12-08T14:56:27.854Z,100195.13
2022-12-08T14:59:16.528Z,100198.75
2022-12-08T15:01:50.738Z,100211.09
2022-12-08T15:04:29.268Z,100207.44
2022-12-08T15:07:10.233Z,100200.41
2022-12-08T15:09:45.639Z,100201.00
2022-12-08T15:12:32.321Z,100211.94
2022-12-08T15:15:18.040Z,100202.97
2022-12-08T15:17:54.920Z,100197.56
2022-12-08T15:20:36.042Z,100211.66
2022-12-08T15:23:09.763Z,100206.88
2022-12-08T15:25:42.562Z,100207.69
2022-12-08T15:28:26.688Z,100203.34
2022-12-08T15:31:02.741Z,100203.25
2022-12-08T15:33:35.562Z,100212.34
2022-12-08T15:36:08.256Z,100225.94
2022-12-08T15:38:41.160Z,100233.53
2022-12-08T15:41:15.338Z,100239.69
2022-12-08T15:43:50.221Z,100231.00
2022-12-08T15:46:22.384Z,100223.88
2022-12-08T15:48:58.111Z,100225.66
2022-12-08T15:51:31.367Z,100218.78
2022-12-08T15:54:06.373Z,100215.13
2022-12-08T15:56:50.667Z,100215.16
2022-12-08T15:59:34.860Z,100227.31
2022-12-08T16:02:09.150Z,100224.00
2022-12-08T16:07:39.600Z,100227.44
2022-12-08T16:10:18.363Z,100238.69
2022-12-08T16:16:01.299Z,100234.31
2022-12-08T16:18:37.527Z,100233.22
2022-12-08T16:21:31.218Z,100233.41
2022-12-08T16:24:07.514Z,100234.28
2022-12-08T16:29:32.662Z,100241.09
2022-12-08T16:32:07.031Z,100242.34
2022-12-08T16:34:39.063Z,100246.84
2022-12-08T16:37:10.371Z,100255.41
2022-12-08T16:39:45.708Z,100249.47
2022-12-08T16:42:37.697Z,100249.50
2022-12-08T16:45:15.952Z,100255.63
2022-12-08T16:47:52.143Z,100249.50
2022-12-08T16:50:26.555Z,100244.94
2022-12-08T16:53:01.818Z,100248.19
2022-12-08T16:55:34.765Z,100247.31
2022-12-08T16:58:06.218Z,100247.06
2022-12-08T17:00:39.146Z,100253.81
2022-12-08T17:03:17.032Z,100249.63
2022-12-08T17:05:48.812Z,100259.16
2022-12-08T17:08:20.287Z,100259.47
2022-12-08T17:11:07.648Z,100255.78
2022-12-08T17:13:40.849Z,100258.97
2022-12-08T17:16:14.199Z,100256.34
2022-12-08T17:18:48.412Z,100262.25
2022-12-08T17:21:21.049Z,100261.28
2022-12-08T17:23:52.702Z,100262.19
2022-12-08T17:26:24.348Z,100266.69
2022-12-08T17:29:08.509Z,100268.25
2022-12-08T17:31:40.424Z,100269.84
2022-12-08T17:34:14.753Z,100264.72
2022-12-08T17:36:46.791Z,100273.94
2022-12-08T17:39:19.253Z,100276.31
2022-12-08T17:41:51.185Z,100272.78
2022-12-08T17:44:23.152Z,100268.34
2022-12-08T17:46:54.706Z,100270.84
2022-12-08T17:49:30.939Z,100276.91
2022-12-08T17:52:04.528Z,100273.16
2022-12-08T17:54:36.888Z,100274.06
2022-12-08T17:57:08.522Z,100273.19
2022-12-08T17:59:39.569Z,100271.50
2022-12-08T18:02:13.966Z,100270.31
2022-12-08T18:04:50.878Z,100274.53
2022-12-08T18:07:22.675Z,100273.97
2022-12-08T18:09:54.852Z,100281.22
2022-12-08T18:12:26.905Z,100278.75
2022-12-08T18:14:58.360Z,100279.97
2022-12-08T18:17:30.269Z,100278.56
2022-12-08T18:20:04.728Z,100278.41
2022-12-08T18:22:36.807Z,100278.00
2022-12-08T18:25:09.622Z,100281.03
2022-12-08T18:27:43.298Z,100276.16
2022-12-08T18:30:20.373Z,100273.81
2022-12-08T18:32:57.180Z,100274.97
2022-12-08T18:35:31.733Z,100288.41
2022-12-08T18:38:03.483Z,100285.59
2022-12-08T18:40:34.899Z,100286.69
2022-12-08T18:43:06.497Z,100291.44
2022-12-08T18:45:40.015Z,100286.88
2022-12-08T18:48:12.059Z,100294.56
2022-12-08T18:50:46.893Z,100297.06
2022-12-08T18:53:18.798Z,100291.09
2022-12-08T18:55:54.347Z,100300.50
2022-12-08T18:58:26.328Z,100298.41
2022-12-08T19:00:57.935Z,100293.34
2022-12-08T19:03:29.758Z,100306.66
2022-12-08T19:06:10.555Z,100308.63
2022-12-08T19:08:42.633Z,100310.94
2022-12-08T19:11:21.338Z,100314.03
2022-12-08T19:13:53.991Z,100319.50
2022-12-08T19:16:26.226Z,100323.56
2022-12-08T19:18:59.462Z,100331.69
2022-12-08T19:21:37.469Z,100329.88
2022-12-08T19:24:12.283Z,100331.06
2022-12-08T19:26:44.512Z,100330.53
2022-12-08T19:29:16.927Z,100336.91
2022-12-08T19:31:48.757Z,100332.59
2022-12-08T19:34:20.864Z,100339.41
2022-12-08T19:36:55.413Z,100333.84
2022-12-08T19:39:39.760Z,100339.72
2022-12-08T19:42:30.960Z,100344.47
2022-12-08T19:45:06.344Z,100342.25
2022-12-08T19:47:38.063Z,100343.16
2022-12-08T19:50:24.686Z,100341.06
2022-12-08T19:52:59.299Z,100345.63
2022-12-08T19:55:31.693Z,100348.16
2022-12-08T19:58:03.920Z,100348.00
2022-12-08T20:00:38.693Z,100347.50
2022-12-08T20:03:10.483Z,100345.91
2022-12-08T20:05:43.250Z,100345.16
2022-12-08T20:08:17.976Z,100360.53
2022-12-08T20:10:50.106Z,100355.16
2022-12-08T20:13:48.900Z,100353.50
2022-12-08T20:16:20.649Z,100353.19
2022-12-08T20:18:52.945Z,100361.59
2022-12-08T20:21:24.976Z,100358.34
2022-12-08T20:23:59.726Z,100354.84
2022-12-08T20:26:31.747Z,100355.59
2022-12-08T20:29:03.111Z,100359.09
2022-12-08T20:31:36.047Z,100348.34
2022-12-08T20:34:07.807Z,100351.06
2022-12-08T20:36:39.421Z,100359.66
2022-12-08T20:39:16.505Z,100360.84
2022-12-08T20:41:49.558Z,100363.38
2022-12-08T20:44:20.952Z,100372.31
2022-12-08T20:46:52.771Z,100365.44
2022-12-08T20:49:26.325Z,100370.19
2022-12-08T20:52:01.704Z,100375.81
2022-12-08T20:54:35.991Z,100373.53
2022-12-08T20:57:07.825Z,100384.03
2022-12-08T20:59:39.474Z,100380.44
2022-12-08T21:02:14.179Z,100379.22
2022-12-08T21:04:46.373Z,100392.41
2022-12-08T21:07:20.765Z,100394.56
2022-12-08T21:09:56.023Z,100390.34
2022-12-08T21:12:29.566Z,100383.59
2022-12-08T21:15:01.664Z,100389.38
2022-12-08T21:17:34.671Z,100394.56
2022-12-08T21:20:07.751Z,100406.97
2022-12-08T21:22:40.884Z,100404.94
2022-12-08T21:25:15.994Z,100403.00
2022-12-08T21:27:49.273Z,100403.38
2022-12-08T21:30:22.798Z,100407.47
2022-12-08T21:33:17.946Z,100405.66
2022-12-08T21:35:51.136Z,100405.16
2022-12-08T21:38:23.021Z,100402.63
2022-12-08T21:40:57.654Z,100410.34
2022-12-08T21:43:29.775Z,100406.97
2022-12-08T21:46:01.145Z,100416.97
2022-12-08T21:48:33.492Z,100414.06
2022-12-08T21:51:08.661Z,100418.66
2022-12-08T21:53:41.440Z,100418.66
2022-12-08T21:56:18.962Z,100423.47
2022-12-08T21:58:52.304Z,100420.84
2022-12-08T22:01:26.820Z,100423.72
2022-12-08T22:04:01.001Z,100424.81
2022-12-08T22:06:38.259Z,100424.56
2022-12-08T22:09:14.116Z,100419.69
2022-12-08T22:11:49.864Z,100426.28
2022-12-08T22:14:22.477Z,100421.44
2022-12-08T22:16:58.318Z,100420.31
2022-12-08T22:19:30.965Z,100418.03
2022-12-08T22:22:03.149Z,100425.63
2022-12-08T22:24:36.337Z,100427.09
2022-12-08T22:27:17.360Z,100423.56
2022-12-08T22:29:51.365Z,100416.31
2022-12-08T22:32:25.936Z,100415.44
2022-12-08T22:34:58.649Z,100418.22
2022-12-08T22:37:32.712Z,100419.09
2022-12-08T22:40:05.518Z,100417.75
2022-12-08T22:42:44.084Z,100426.56
2022-12-08T22:45:16.955Z,100425.13
2022-12-08T22:47:51.144Z,100420.63
2022-12-08T22:50:26.951Z,100422.28
2022-12-08T22:52:58.810Z,100425.81
2022-12-08T22:55:33.900Z,100425.19
2022-12-08T22:58:11.919Z,100425.28
2022-12-08T23:00:43.866Z,100424.22
2022-12-08T23:03:22.653Z,100417.75
2022-12-08T23:06:02.194Z,100423.38
2022-12-08T23:08:38.021Z,100429.28
2022-12-08T23:11:14.425Z,100427.88
2022-12-08T23:13:53.292Z,100414.34
2022-12-08T23:16:26.494Z,100417.47
2022-12-08T23:19:02.854Z,100412.16
2022-12-08T23:21:35.654Z,100412.91
2022-12-08T23:24:08.667Z,100416.19
2022-12-08T23:26:43.412Z,100409.56
2022-12-08T23:29:20.262Z,100406.66
2022-12-08T23:31:53.093Z,100414.03
2022-12-08T23:34:25.785Z,100408.91
2022-12-08T23:36:58.660Z,100404.50
2022-12-08T23:39:31.011Z,100409.44
2022-12-08T23:42:05.802Z,100402.94
2022-12-08T23:44:41.480Z,100410.91
2022-12-08T23:47:15.326Z,100408.25
2022-12-08T23:49:52.025Z,100407.91
2022-12-08T23:55:31.122Z,100417.63
2022-12-08T23:58:03.152Z,100405.94
